sensor_id;sensor_type;location;lat;lon;timestamp;temperature;humidity
63383;DHT22;49512;48.744;9.176;2023-01-30T00:00:13;10.70;99.90
63383;DHT22;49512;48.744;9.176;2023-01-30T00:05:05;10.70;99.90
63383;DHT22;49512;48.744;9.176;2023-01-30T00:07:30;10.70;99.90
63383;DHT22;49512;48.744;9.176;2023-01-30T00:09:56;10.70;99.90
63383;DHT22;49512;48.744;9.176;2023-01-30T00:12:21;10.70;99.90
63383;DHT22;49512;48.744;9.176;2023-01-30T00:14:47;10.70;99.90
63383;DHT22;49512;48.744;9.176;2023-01-30T00:17:12;10.70;99.90
63383;DHT22;49512;48.744;9.176;2023-01-30T00:19:38;10.70;99.90
63383;DHT22;49512;48.744;9.176;2023-01-30T00:22:03;10.60;99.90
63383;DHT22;49512;48.744;9.176;2023-01-30T00:24:29;10.70;99.90
63383;DHT22;49512;48.744;9.176;2023-01-30T00:26:54;10.60;99.90
63383;DHT22;49512;48.744;9.176;2023-01-30T00:29:20;10.70;99.90
63383;DHT22;49512;48.744;9.176;2023-01-30T00:31:45;10.70;99.90
63383;DHT22;49512;48.744;9.176;2023-01-30T00:34:11;10.60;99.90
63383;DHT22;49512;48.744;9.176;2023-01-30T00:36:36;10.70;99.90
63383;DHT22;49512;48.744;9.176;2023-01-30T00:41:27;10.70;99.90
63383;DHT22;49512;48.744;9.176;2023-01-30T00:44:13;10.60;99.90
63383;DHT22;49512;48.744;9.176;2023-01-30T00:46:57;10.70;99.90
63383;DHT22;49512;48.744;9.176;2023-01-30T00:49:33;10.70;99.90
63383;DHT22;49512;48.744;9.176;2023-01-30T00:51:59;10.60;99.90
63383;DHT22;49512;48.744;9.176;2023-01-30T00:54:24;10.70;99.90
63383;DHT22;49512;48.744;9.176;2023-01-30T00:56:49;10.70;99.90
63383;DHT22;49512;48.744;9.176;2023-01-30T00:59:15;10.70;99.90
63383;DHT22;49512;48.744;9.176;2023-01-30T01:01:40;10.70;99.90
63383;DHT22;49512;48.744;9.176;2023-01-30T01:04:06;10.60;99.90
63383;DHT22;49512;48.744;9.176;2023-01-30T01:06:33;10.60;99.90
63383;DHT22;49512;48.744;9.176;2023-01-30T01:08:58;10.70;99.90
63383;DHT22;49512;48.744;9.176;2023-01-30T01:11:24;10.70;99.90
63383;DHT22;49512;48.744;9.176;2023-01-30T01:13:50;10.60;99.90
63383;DHT22;49512;48.744;9.176;2023-01-30T01:16:16;10.60;99.90
63383;DHT22;49512;48.744;9.176;2023-01-30T01:18:41;10.70;99.90
63383;DHT22;49512;48.744;9.176;2023-01-30T01:21:07;10.60;99.90
63383;DHT22;49512;48.744;9.176;2023-01-30T01:23:32;10.60;99.90
63383;DHT22;49512;48.744;9.176;2023-01-30T01:26:01;10.60;99.90
63383;DHT22;49512;48.744;9.176;2023-01-30T01:28:27;10.60;99.90
63383;DHT22;49512;48.744;9.176;2023-01-30T01:30:52;10.60;99.90
63383;DHT22;49512;48.744;9.176;2023-01-30T01:33:18;10.60;99.90
63383;DHT22;49512;48.744;9.176;2023-01-30T01:35:43;10.60;99.90
63383;DHT22;49512;48.744;9.176;2023-01-30T01:38:09;10.60;99.90
63383;DHT22;49512;48.744;9.176;2023-01-30T01:40:34;10.60;99.90
63383;DHT22;49512;48.744;9.176;2023-01-30T01:43:20;10.50;99.90
63383;DHT22;49512;48.744;9.176;2023-01-30T01:45:47;10.60;99.90
63383;DHT22;49512;48.744;9.176;2023-01-30T01:50:42;10.60;99.90
63383;DHT22;49512;48.744;9.176;2023-01-30T01:53:09;10.60;99.90
63383;DHT22;49512;48.744;9.176;2023-01-30T01:55:36;10.60;99.90
63383;DHT22;49512;48.744;9.176;2023-01-30T01:58:10;10.60;99.90
63383;DHT22;49512;48.744;9.176;2023-01-30T02:00:37;10.60;99.90
63383;DHT22;49512;48.744;9.176;2023-01-30T02:03:04;10.50;99.90
63383;DHT22;49512;48.744;9.176;2023-01-30T02:05:31;10.50;99.90
63383;DHT22;49512;48.744;9.176;2023-01-30T02:08:02;10.60;99.90
63383;DHT22;49512;48.744;9.176;2023-01-30T02:12:54;10.60;99.90
63383;DHT22;49512;48.744;9.176;2023-01-30T02:15:20;10.50;99.90
63383;DHT22;49512;48.744;9.176;2023-01-30T02:17:45;10.50;99.90
63383;DHT22;49512;48.744;9.176;2023-01-30T02:36:02;10.50;99.90
63383;DHT22;49512;48.744;9.176;2023-01-30T02:38:37;10.50;99.90
63383;DHT22;49512;48.744;9.176;2023-01-30T02:41:24;10.50;99.90
63383;DHT22;49512;48.744;9.176;2023-01-30T02:44:04;10.50;99.90
63383;DHT22;49512;48.744;9.176;2023-01-30T02:51:40;10.50;99.90
63383;DHT22;49512;48.744;9.176;2023-01-30T02:54:06;10.50;99.90
63383;DHT22;49512;48.744;9.176;2023-01-30T02:56:45;10.50;99.90
63383;DHT22;49512;48.744;9.176;2023-01-30T02:59:10;10.60;99.90
63383;DHT22;49512;48.744;9.176;2023-01-30T03:01:47;10.60;99.90
63383;DHT22;49512;48.744;9.176;2023-01-30T03:09:46;10.50;99.90
63383;DHT22;49512;48.744;9.176;2023-01-30T03:14:51;10.50;99.90
63383;DHT22;49512;48.744;9.176;2023-01-30T03:17:20;10.50;99.90
63383;DHT22;49512;48.744;9.176;2023-01-30T03:19:45;10.50;99.90
63383;DHT22;49512;48.744;9.176;2023-01-30T03:22:11;10.50;99.90
63383;DHT22;49512;48.744;9.176;2023-01-30T03:24:36;10.50;99.90
63383;DHT22;49512;48.744;9.176;2023-01-30T03:27:04;10.50;99.90
63383;DHT22;49512;48.744;9.176;2023-01-30T03:29:30;10.50;99.90
63383;DHT22;49512;48.744;9.176;2023-01-30T03:34:21;10.50;99.90
63383;DHT22;49512;48.744;9.176;2023-01-30T03:36:50;10.50;99.90
63383;DHT22;49512;48.744;9.176;2023-01-30T03:39:15;10.50;99.90
63383;DHT22;49512;48.744;9.176;2023-01-30T03:41:41;10.40;99.90
63383;DHT22;49512;48.744;9.176;2023-01-30T03:44:07;10.40;99.90
63383;DHT22;49512;48.744;9.176;2023-01-30T03:46:32;10.50;99.90
63383;DHT22;49512;48.744;9.176;2023-01-30T03:48:58;10.40;99.90
63383;DHT22;49512;48.744;9.176;2023-01-30T03:53:49;10.40;99.90
63383;DHT22;49512;48.744;9.176;2023-01-30T03:56:15;10.40;99.90
63383;DHT22;49512;48.744;9.176;2023-01-30T03:58:40;10.40;99.90
63383;DHT22;49512;48.744;9.176;2023-01-30T04:01:05;10.40;99.90
63383;DHT22;49512;48.744;9.176;2023-01-30T04:03:32;10.40;99.90
63383;DHT22;49512;48.744;9.176;2023-01-30T04:05:57;10.40;99.90
63383;DHT22;49512;48.744;9.176;2023-01-30T04:08:23;10.40;99.90
63383;DHT22;49512;48.744;9.176;2023-01-30T04:10:48;10.40;99.90
63383;DHT22;49512;48.744;9.176;2023-01-30T04:13:14;10.40;99.90
63383;DHT22;49512;48.744;9.176;2023-01-30T04:15:39;10.40;99.90
63383;DHT22;49512;48.744;9.176;2023-01-30T04:18:05;10.40;99.90
63383;DHT22;49512;48.744;9.176;2023-01-30T04:20:33;10.40;99.90
63383;DHT22;49512;48.744;9.176;2023-01-30T04:22:58;10.40;99.90
63383;DHT22;49512;48.744;9.176;2023-01-30T04:25:24;10.40;99.90
63383;DHT22;49512;48.744;9.176;2023-01-30T04:27:50;10.30;99.90
63383;DHT22;49512;48.744;9.176;2023-01-30T04:30:15;10.40;99.90
63383;DHT22;49512;48.744;9.176;2023-01-30T04:32:41;10.40;99.90
63383;DHT22;49512;48.744;9.176;2023-01-30T04:35:06;10.40;99.90
63383;DHT22;49512;48.744;9.176;2023-01-30T04:37:32;10.30;99.90
63383;DHT22;49512;48.744;9.176;2023-01-30T04:39:57;10.40;99.90
63383;DHT22;49512;48.744;9.176;2023-01-30T04:42:23;10.40;99.90
63383;DHT22;49512;48.744;9.176;2023-01-30T04:44:48;10.40;99.90
63383;DHT22;49512;48.744;9.176;2023-01-30T04:47:14;10.40;99.90
63383;DHT22;49512;48.744;9.176;2023-01-30T04:49:40;10.40;99.90
63383;DHT22;49512;48.744;9.176;2023-01-30T04:52:05;10.40;99.90
63383;DHT22;49512;48.744;9.176;2023-01-30T04:54:31;10.40;99.90
63383;DHT22;49512;48.744;9.176;2023-01-30T04:56:56;10.40;99.90
63383;DHT22;49512;48.744;9.176;2023-01-30T04:59:22;10.30;99.90
63383;DHT22;49512;48.744;9.176;2023-01-30T05:01:47;10.30;99.90
63383;DHT22;49512;48.744;9.176;2023-01-30T05:04:13;10.30;99.90
63383;DHT22;49512;48.744;9.176;2023-01-30T05:06:39;10.30;99.90
63383;DHT22;49512;48.744;9.176;2023-01-30T05:09:04;10.40;99.90
63383;DHT22;49512;48.744;9.176;2023-01-30T05:11:30;10.30;99.90
63383;DHT22;49512;48.744;9.176;2023-01-30T05:13:56;10.30;99.90
63383;DHT22;49512;48.744;9.176;2023-01-30T05:16:22;10.30;99.90
63383;DHT22;49512;48.744;9.176;2023-01-30T05:18:47;10.30;99.90
63383;DHT22;49512;48.744;9.176;2023-01-30T05:21:14;10.30;99.90
63383;DHT22;49512;48.744;9.176;2023-01-30T05:23:40;10.30;99.90
63383;DHT22;49512;48.744;9.176;2023-01-30T05:26:05;10.20;99.90
63383;DHT22;49512;48.744;9.176;2023-01-30T05:28:31;10.30;99.90
63383;DHT22;49512;48.744;9.176;2023-01-30T05:31:00;10.30;99.90
63383;DHT22;49512;48.744;9.176;2023-01-30T05:33:26;10.30;99.90
63383;DHT22;49512;48.744;9.176;2023-01-30T05:35:51;10.30;99.90
63383;DHT22;49512;48.744;9.176;2023-01-30T05:38:17;10.30;99.90
63383;DHT22;49512;48.744;9.176;2023-01-30T05:40:42;10.20;99.90
63383;DHT22;49512;48.744;9.176;2023-01-30T05:43:08;10.30;99.90
63383;DHT22;49512;48.744;9.176;2023-01-30T05:45:34;10.30;99.90
63383;DHT22;49512;48.744;9.176;2023-01-30T05:48:00;10.20;99.90
63383;DHT22;49512;48.744;9.176;2023-01-30T05:50:25;10.30;99.90
63383;DHT22;49512;48.744;9.176;2023-01-30T05:52:51;10.30;99.90
63383;DHT22;49512;48.744;9.176;2023-01-30T05:55:16;10.40;99.90
63383;DHT22;49512;48.744;9.176;2023-01-30T05:57:42;10.30;99.90
63383;DHT22;49512;48.744;9.176;2023-01-30T06:00:07;10.40;99.90
63383;DHT22;49512;48.744;9.176;2023-01-30T06:02:34;10.40;99.90
63383;DHT22;49512;48.744;9.176;2023-01-30T06:05:00;10.40;99.90
63383;DHT22;49512;48.744;9.176;2023-01-30T06:07:25;10.30;99.90
63383;DHT22;49512;48.744;9.176;2023-01-30T06:09:51;10.30;99.90
63383;DHT22;49512;48.744;9.176;2023-01-30T06:12:16;10.30;99.90
63383;DHT22;49512;48.744;9.176;2023-01-30T06:14:42;10.30;99.90
63383;DHT22;49512;48.744;9.176;2023-01-30T06:17:07;10.30;99.90
63383;DHT22;49512;48.744;9.176;2023-01-30T06:19:33;10.40;99.90
63383;DHT22;49512;48.744;9.176;2023-01-30T06:21:58;10.30;99.90
63383;DHT22;49512;48.744;9.176;2023-01-30T06:24:24;10.30;99.90
63383;DHT22;49512;48.744;9.176;2023-01-30T06:27:02;10.30;99.90
63383;DHT22;49512;48.744;9.176;2023-01-30T06:29:27;10.30;99.90
63383;DHT22;49512;48.744;9.176;2023-01-30T06:31:53;10.30;99.90
63383;DHT22;49512;48.744;9.176;2023-01-30T06:34:18;10.20;99.90
63383;DHT22;49512;48.744;9.176;2023-01-30T06:36:44;10.20;99.90
63383;DHT22;49512;48.744;9.176;2023-01-30T06:39:09;10.30;99.90
63383;DHT22;49512;48.744;9.176;2023-01-30T06:41:35;10.30;99.90
63383;DHT22;49512;48.744;9.176;2023-01-30T06:44:00;10.30;99.90
63383;DHT22;49512;48.744;9.176;2023-01-30T06:46:26;10.30;99.90
63383;DHT22;49512;48.744;9.176;2023-01-30T06:48:51;10.30;99.90
63383;DHT22;49512;48.744;9.176;2023-01-30T06:51:17;10.30;99.90
63383;DHT22;49512;48.744;9.176;2023-01-30T06:53:42;10.30;99.90
63383;DHT22;49512;48.744;9.176;2023-01-30T06:56:08;10.30;99.90
63383;DHT22;49512;48.744;9.176;2023-01-30T06:58:33;10.30;99.90
63383;DHT22;49512;48.744;9.176;2023-01-30T07:00:59;10.30;99.90
63383;DHT22;49512;48.744;9.176;2023-01-30T07:03:26;10.30;99.90
63383;DHT22;49512;48.744;9.176;2023-01-30T07:05:51;10.20;99.90
63383;DHT22;49512;48.744;9.176;2023-01-30T07:08:17;10.20;99.90
63383;DHT22;49512;48.744;9.176;2023-01-30T07:10:42;10.20;99.90
63383;DHT22;49512;48.744;9.176;2023-01-30T07:13:08;10.30;99.90
63383;DHT22;49512;48.744;9.176;2023-01-30T07:15:34;10.20;99.90
63383;DHT22;49512;48.744;9.176;2023-01-30T07:17:59;10.30;99.90
63383;DHT22;49512;48.744;9.176;2023-01-30T07:20:25;10.20;99.90
63383;DHT22;49512;48.744;9.176;2023-01-30T07:22:51;10.20;99.90
63383;DHT22;49512;48.744;9.176;2023-01-30T07:25:17;10.20;99.90
63383;DHT22;49512;48.744;9.176;2023-01-30T07:30:08;10.20;99.90
63383;DHT22;49512;48.744;9.176;2023-01-30T07:32:34;10.20;99.90
63383;DHT22;49512;48.744;9.176;2023-01-30T07:34:59;10.20;99.90
63383;DHT22;49512;48.744;9.176;2023-01-30T07:37:25;10.30;99.90
63383;DHT22;49512;48.744;9.176;2023-01-30T07:39:50;10.20;99.90
63383;DHT22;49512;48.744;9.176;2023-01-30T07:42:16;10.20;99.90
63383;DHT22;49512;48.744;9.176;2023-01-30T07:44:42;10.30;99.90
63383;DHT22;49512;48.744;9.176;2023-01-30T07:47:07;10.20;99.90
63383;DHT22;49512;48.744;9.176;2023-01-30T07:49:33;10.20;99.90
63383;DHT22;49512;48.744;9.176;2023-01-30T07:51:58;10.30;99.90
63383;DHT22;49512;48.744;9.176;2023-01-30T07:54:24;10.30;99.90
63383;DHT22;49512;48.744;9.176;2023-01-30T07:56:50;10.30;99.90
63383;DHT22;49512;48.744;9.176;2023-01-30T07:59:16;10.30;99.90
63383;DHT22;49512;48.744;9.176;2023-01-30T08:01:41;10.20;99.90
63383;DHT22;49512;48.744;9.176;2023-01-30T08:04:07;10.20;99.90
63383;DHT22;49512;48.744;9.176;2023-01-30T08:06:32;10.20;99.90
63383;DHT22;49512;48.744;9.176;2023-01-30T08:09:03;10.20;99.90
63383;DHT22;49512;48.744;9.176;2023-01-30T08:11:29;10.20;99.90
63383;DHT22;49512;48.744;9.176;2023-01-30T08:16:20;10.20;99.90
63383;DHT22;49512;48.744;9.176;2023-01-30T08:18:45;10.20;99.90
63383;DHT22;49512;48.744;9.176;2023-01-30T08:21:13;10.30;99.90
63383;DHT22;49512;48.744;9.176;2023-01-30T08:23:38;10.20;99.90
63383;DHT22;49512;48.744;9.176;2023-01-30T08:26:04;10.20;99.90
63383;DHT22;49512;48.744;9.176;2023-01-30T08:28:30;10.30;99.90
63383;DHT22;49512;48.744;9.176;2023-01-30T08:30:56;10.20;99.90
63383;DHT22;49512;48.744;9.176;2023-01-30T08:33:22;10.20;99.90
63383;DHT22;49512;48.744;9.176;2023-01-30T08:35:48;10.20;99.90
63383;DHT22;49512;48.744;9.176;2023-01-30T08:38:15;10.20;99.90
63383;DHT22;49512;48.744;9.176;2023-01-30T08:40:40;10.20;99.90
63383;DHT22;49512;48.744;9.176;2023-01-30T08:43:06;10.20;99.90
63383;DHT22;49512;48.744;9.176;2023-01-30T08:45:32;10.20;99.90
63383;DHT22;49512;48.744;9.176;2023-01-30T08:48:01;10.20;99.90
63383;DHT22;49512;48.744;9.176;2023-01-30T08:50:27;10.20;99.90
63383;DHT22;49512;48.744;9.176;2023-01-30T08:52:53;10.20;99.90
63383;DHT22;49512;48.744;9.176;2023-01-30T08:55:18;10.20;99.90
63383;DHT22;49512;48.744;9.176;2023-01-30T08:57:45;10.20;99.90
63383;DHT22;49512;48.744;9.176;2023-01-30T09:00:11;10.20;99.90
63383;DHT22;49512;48.744;9.176;2023-01-30T09:02:36;10.20;99.90
63383;DHT22;49512;48.744;9.176;2023-01-30T09:07:28;10.20;99.90
63383;DHT22;49512;48.744;9.176;2023-01-30T09:09:53;10.30;99.90
63383;DHT22;49512;48.744;9.176;2023-01-30T09:12:22;10.30;99.90
63383;DHT22;49512;48.744;9.176;2023-01-30T09:17:34;10.30;99.90
63383;DHT22;49512;48.744;9.176;2023-01-30T09:19:59;10.30;99.90
63383;DHT22;49512;48.744;9.176;2023-01-30T09:22:25;10.30;99.90
63383;DHT22;49512;48.744;9.176;2023-01-30T09:25:00;10.20;99.90
63383;DHT22;49512;48.744;9.176;2023-01-30T09:27:26;10.20;99.90
63383;DHT22;49512;48.744;9.176;2023-01-30T09:29:57;10.20;99.90
63383;DHT22;49512;48.744;9.176;2023-01-30T09:32:23;10.30;99.90
63383;DHT22;49512;48.744;9.176;2023-01-30T09:34:49;10.40;99.90
63383;DHT22;49512;48.744;9.176;2023-01-30T09:37:14;10.30;99.90
63383;DHT22;49512;48.744;9.176;2023-01-30T09:39:40;10.30;99.90
63383;DHT22;49512;48.744;9.176;2023-01-30T09:53:28;10.10;99.90
63383;DHT22;49512;48.744;9.176;2023-01-30T09:55:35;10.10;99.90
63383;DHT22;49512;48.744;9.176;2023-01-30T09:58:02;10.10;99.90
63383;DHT22;49512;48.744;9.176;2023-01-30T10:00:29;10.10;99.90
63383;DHT22;49512;48.744;9.176;2023-01-30T10:05:46;10.10;99.90
63383;DHT22;49512;48.744;9.176;2023-01-30T10:15:50;10.10;99.90
63383;DHT22;49512;48.744;9.176;2023-01-30T10:20:48;10.20;99.90
63383;DHT22;49512;48.744;9.176;2023-01-30T10:25:54;10.10;99.90
63383;DHT22;49512;48.744;9.176;2023-01-30T10:28:24;10.20;99.90
63383;DHT22;49512;48.744;9.176;2023-01-30T10:30:51;10.20;99.90
63383;DHT22;49512;48.744;9.176;2023-01-30T10:33:19;10.20;99.90
63383;DHT22;49512;48.744;9.176;2023-01-30T10:35:45;10.20;99.90
63383;DHT22;49512;48.744;9.176;2023-01-30T10:40:40;10.20;99.90
63383;DHT22;49512;48.744;9.176;2023-01-30T10:43:09;10.20;99.90
63383;DHT22;49512;48.744;9.176;2023-01-30T10:48:18;10.20;99.90
63383;DHT22;49512;48.744;9.176;2023-01-30T10:50:52;10.20;99.90
63383;DHT22;49512;48.744;9.176;2023-01-30T10:55:58;10.20;99.90
63383;DHT22;49512;48.744;9.176;2023-01-30T10:58:28;10.20;99.90
63383;DHT22;49512;48.744;9.176;2023-01-30T11:00:59;10.20;99.90
63383;DHT22;49512;48.744;9.176;2023-01-30T11:06:06;10.30;99.90
63383;DHT22;49512;48.744;9.176;2023-01-30T11:08:33;10.20;99.90
63383;DHT22;49512;48.744;9.176;2023-01-30T11:10:59;10.20;99.90
63383;DHT22;49512;48.744;9.176;2023-01-30T11:13:29;10.20;99.90
63383;DHT22;49512;48.744;9.176;2023-01-30T11:15:55;10.30;99.90
63383;DHT22;49512;48.744;9.176;2023-01-30T11:18:22;10.30;99.90
63383;DHT22;49512;48.744;9.176;2023-01-30T11:20:57;10.30;99.90
63383;DHT22;49512;48.744;9.176;2023-01-30T11:23:26;10.30;99.90
63383;DHT22;49512;48.744;9.176;2023-01-30T11:25:55;10.30;99.90
63383;DHT22;49512;48.744;9.176;2023-01-30T11:28:27;10.50;99.90
63383;DHT22;49512;48.744;9.176;2023-01-30T11:42:49;10.60;99.90
63383;DHT22;49512;48.744;9.176;2023-01-30T11:45:15;10.60;99.90
63383;DHT22;49512;48.744;9.176;2023-01-30T11:47:55;10.50;99.90
63383;DHT22;49512;48.744;9.176;2023-01-30T11:50:21;10.50;99.90
63383;DHT22;49512;48.744;9.176;2023-01-30T11:52:48;10.60;99.90
63383;DHT22;49512;48.744;9.176;2023-01-30T11:55:17;10.60;99.90
63383;DHT22;49512;48.744;9.176;2023-01-30T11:57:48;10.50;99.90
63383;DHT22;49512;48.744;9.176;2023-01-30T12:00:22;10.40;99.90
63383;DHT22;49512;48.744;9.176;2023-01-30T12:02:48;10.40;99.90
63383;DHT22;49512;48.744;9.176;2023-01-30T12:07:50;10.50;99.90
63383;DHT22;49512;48.744;9.176;2023-01-30T12:10:18;10.40;99.90
63383;DHT22;49512;48.744;9.176;2023-01-30T12:12:50;10.40;99.90
63383;DHT22;49512;48.744;9.176;2023-01-30T12:15:27;10.50;99.90
63383;DHT22;49512;48.744;9.176;2023-01-30T12:25:34;10.40;99.90
63383;DHT22;49512;48.744;9.176;2023-01-30T12:30:34;10.50;99.90
63383;DHT22;49512;48.744;9.176;2023-01-30T12:33:01;10.60;99.90
63383;DHT22;49512;48.744;9.176;2023-01-30T12:35:30;10.60;99.90
63383;DHT22;49512;48.744;9.176;2023-01-30T12:45:56;10.60;99.90
63383;DHT22;49512;48.744;9.176;2023-01-30T12:48:33;10.70;99.90
63383;DHT22;49512;48.744;9.176;2023-01-30T12:59:02;10.70;99.90
63383;DHT22;49512;48.744;9.176;2023-01-30T13:01:35;10.70;99.90
63383;DHT22;49512;48.744;9.176;2023-01-30T13:11:58;10.70;99.90
63383;DHT22;49512;48.744;9.176;2023-01-30T13:14:32;10.70;99.90
63383;DHT22;49512;48.744;9.176;2023-01-30T13:17:02;10.70;99.90
63383;DHT22;49512;48.744;9.176;2023-01-30T13:20:13;10.70;99.90
63383;DHT22;49512;48.744;9.176;2023-01-30T13:27:21;10.70;99.90
63383;DHT22;49512;48.744;9.176;2023-01-30T13:29:47;10.70;99.90
63383;DHT22;49512;48.744;9.176;2023-01-30T13:32:14;10.70;99.90
63383;DHT22;49512;48.744;9.176;2023-01-30T13:34:42;10.70;99.90
63383;DHT22;49512;48.744;9.176;2023-01-30T13:37:18;10.70;99.90
63383;DHT22;49512;48.744;9.176;2023-01-30T13:40:18;10.70;99.90
63383;DHT22;49512;48.744;9.176;2023-01-30T13:45:13;10.70;99.90
63383;DHT22;49512;48.744;9.176;2023-01-30T14:00:57;10.70;99.90
63383;DHT22;49512;48.744;9.176;2023-01-30T14:03:29;10.80;99.90
63383;DHT22;49512;48.744;9.176;2023-01-30T14:10:53;11.50;99.90
63383;DHT22;49512;48.744;9.176;2023-01-30T14:13:22;10.70;99.90
63383;DHT22;49512;48.744;9.176;2023-01-30T14:20:51;10.70;99.90
63383;DHT22;49512;48.744;9.176;2023-01-30T14:23:35;10.80;99.90
63383;DHT22;49512;48.744;9.176;2023-01-30T14:26:00;10.70;99.90
63383;DHT22;49512;48.744;9.176;2023-01-30T14:31:01;10.80;99.90
63383;DHT22;49512;48.744;9.176;2023-01-30T14:38:25;10.80;99.90
63383;DHT22;49512;48.744;9.176;2023-01-30T14:45:51;10.90;99.90
63383;DHT22;49512;48.744;9.176;2023-01-30T14:48:31;10.80;99.90
63383;DHT22;49512;48.744;9.176;2023-01-30T14:59:09;10.90;99.90
63383;DHT22;49512;48.744;9.176;2023-01-30T15:04:19;10.80;99.90
63383;DHT22;49512;48.744;9.176;2023-01-30T15:06:45;10.80;99.90
63383;DHT22;49512;48.744;9.176;2023-01-30T15:09:15;11.30;99.90
63383;DHT22;49512;48.744;9.176;2023-01-30T15:11:40;13.40;99.90
63383;DHT22;49512;48.744;9.176;2023-01-30T15:14:13;14.70;99.90
63383;DHT22;49512;48.744;9.176;2023-01-30T15:24:39;15.60;99.90
63383;DHT22;49512;48.744;9.176;2023-01-30T15:30:19;15.70;99.90
63383;DHT22;49512;48.744;9.176;2023-01-30T15:32:26;15.70;99.90
63383;DHT22;49512;48.744;9.176;2023-01-30T15:34:59;15.60;99.90
63383;DHT22;49512;48.744;9.176;2023-01-30T15:37:29;15.60;99.90
63383;DHT22;49512;48.744;9.176;2023-01-30T15:45:23;15.70;99.90
63383;DHT22;49512;48.744;9.176;2023-01-30T15:50:26;15.60;99.90
63383;DHT22;49512;48.744;9.176;2023-01-30T15:52:51;15.60;99.90
63383;DHT22;49512;48.744;9.176;2023-01-30T15:55:32;15.60;99.90
63383;DHT22;49512;48.744;9.176;2023-01-30T15:58:02;15.60;99.90
63383;DHT22;49512;48.744;9.176;2023-01-30T16:00:29;15.60;99.90
63383;DHT22;49512;48.744;9.176;2023-01-30T16:02:56;15.50;99.90
63383;DHT22;49512;48.744;9.176;2023-01-30T16:05:23;15.50;99.90
63383;DHT22;49512;48.744;9.176;2023-01-30T16:07:49;15.50;99.90
63383;DHT22;49512;48.744;9.176;2023-01-30T16:10:16;15.40;99.90
63383;DHT22;49512;48.744;9.176;2023-01-30T16:12:42;15.50;99.90
63383;DHT22;49512;48.744;9.176;2023-01-30T16:15:43;15.50;99.90
63383;DHT22;49512;48.744;9.176;2023-01-30T16:18:01;15.50;99.90
63383;DHT22;49512;48.744;9.176;2023-01-30T16:20:28;15.50;99.90
63383;DHT22;49512;48.744;9.176;2023-01-30T16:22:56;15.50;99.90
63383;DHT22;49512;48.744;9.176;2023-01-30T16:25:23;15.50;99.90
63383;DHT22;49512;48.744;9.176;2023-01-30T16:27:49;15.50;99.90
63383;DHT22;49512;48.744;9.176;2023-01-30T16:30:20;15.50;99.90
63383;DHT22;49512;48.744;9.176;2023-01-30T16:32:52;15.50;99.90
63383;DHT22;49512;48.744;9.176;2023-01-30T16:37:50;15.50;99.90
63383;DHT22;49512;48.744;9.176;2023-01-30T16:40:17;15.50;99.90
63383;DHT22;49512;48.744;9.176;2023-01-30T16:47:51;15.30;99.90
63383;DHT22;49512;48.744;9.176;2023-01-30T16:50:18;15.40;99.90
63383;DHT22;49512;48.744;9.176;2023-01-30T16:52:45;15.50;99.90
63383;DHT22;49512;48.744;9.176;2023-01-30T16:55:21;15.50;99.90
63383;DHT22;49512;48.744;9.176;2023-01-30T16:57:57;15.50;99.90
63383;DHT22;49512;48.744;9.176;2023-01-30T17:00:25;15.50;99.90
63383;DHT22;49512;48.744;9.176;2023-01-30T17:02:53;15.50;99.90
63383;DHT22;49512;48.744;9.176;2023-01-30T17:05:20;15.60;99.90
63383;DHT22;49512;48.744;9.176;2023-01-30T17:07:47;15.60;99.90
63383;DHT22;49512;48.744;9.176;2023-01-30T17:12:54;15.60;99.90
63383;DHT22;49512;48.744;9.176;2023-01-30T17:17:45;15.60;99.90
63383;DHT22;49512;48.744;9.176;2023-01-30T17:20:11;15.60;99.90
63383;DHT22;49512;48.744;9.176;2023-01-30T17:22:41;15.60;99.90
63383;DHT22;49512;48.744;9.176;2023-01-30T17:25:13;15.70;99.90
63383;DHT22;49512;48.744;9.176;2023-01-30T17:27:41;15.80;99.90
63383;DHT22;49512;48.744;9.176;2023-01-30T17:30:11;15.70;99.90
63383;DHT22;49512;48.744;9.176;2023-01-30T17:32:36;15.80;99.90
63383;DHT22;49512;48.744;9.176;2023-01-30T17:35:02;15.70;99.90
63383;DHT22;49512;48.744;9.176;2023-01-30T17:37:28;15.80;99.90
63383;DHT22;49512;48.744;9.176;2023-01-30T17:39:53;15.70;99.90
63383;DHT22;49512;48.744;9.176;2023-01-30T17:42:18;15.60;99.90
63383;DHT22;49512;48.744;9.176;2023-01-30T17:44:46;15.70;99.90
63383;DHT22;49512;48.744;9.176;2023-01-30T17:47:11;15.70;99.90
63383;DHT22;49512;48.744;9.176;2023-01-30T17:49:37;15.70;99.90
63383;DHT22;49512;48.744;9.176;2023-01-30T17:52:03;15.70;99.90
63383;DHT22;49512;48.744;9.176;2023-01-30T17:54:28;15.70;99.90
63383;DHT22;49512;48.744;9.176;2023-01-30T17:56:55;15.60;99.90
63383;DHT22;49512;48.744;9.176;2023-01-30T17:59:23;15.60;99.90
63383;DHT22;49512;48.744;9.176;2023-01-30T18:01:50;15.50;99.90
63383;DHT22;49512;48.744;9.176;2023-01-30T18:04:16;15.50;99.90
63383;DHT22;49512;48.744;9.176;2023-01-30T18:06:42;15.50;99.90
63383;DHT22;49512;48.744;9.176;2023-01-30T18:09:16;15.50;99.90
63383;DHT22;49512;48.744;9.176;2023-01-30T18:11:42;15.40;99.90
63383;DHT22;49512;48.744;9.176;2023-01-30T18:14:07;15.40;99.90
63383;DHT22;49512;48.744;9.176;2023-01-30T18:16:33;15.40;99.90
63383;DHT22;49512;48.744;9.176;2023-01-30T18:18:59;15.40;99.90
63383;DHT22;49512;48.744;9.176;2023-01-30T18:21:28;15.30;99.90
63383;DHT22;49512;48.744;9.176;2023-01-30T18:23:54;15.30;99.90
63383;DHT22;49512;48.744;9.176;2023-01-30T18:26:20;15.30;99.90
63383;DHT22;49512;48.744;9.176;2023-01-30T18:28:45;15.40;99.90
63383;DHT22;49512;48.744;9.176;2023-01-30T18:31:11;15.30;99.90
63383;DHT22;49512;48.744;9.176;2023-01-30T18:33:37;15.30;99.90
63383;DHT22;49512;48.744;9.176;2023-01-30T18:36:05;15.30;99.90
63383;DHT22;49512;48.744;9.176;2023-01-30T18:38:31;15.30;99.90
63383;DHT22;49512;48.744;9.176;2023-01-30T18:40:57;15.20;99.90
63383;DHT22;49512;48.744;9.176;2023-01-30T18:43:23;15.20;99.90
63383;DHT22;49512;48.744;9.176;2023-01-30T18:45:49;15.20;99.90
63383;DHT22;49512;48.744;9.176;2023-01-30T18:48:14;15.20;99.90
63383;DHT22;49512;48.744;9.176;2023-01-30T18:50:40;15.20;99.90
63383;DHT22;49512;48.744;9.176;2023-01-30T18:53:05;15.20;99.90
63383;DHT22;49512;48.744;9.176;2023-01-30T18:55:34;15.20;99.90
63383;DHT22;49512;48.744;9.176;2023-01-30T18:58:00;15.20;99.90
63383;DHT22;49512;48.744;9.176;2023-01-30T19:00:25;15.20;99.90
63383;DHT22;49512;48.744;9.176;2023-01-30T19:02:51;15.20;99.90
63383;DHT22;49512;48.744;9.176;2023-01-30T19:05:17;15.20;99.90
63383;DHT22;49512;48.744;9.176;2023-01-30T19:07:43;15.20;99.90
63383;DHT22;49512;48.744;9.176;2023-01-30T19:10:08;15.20;99.90
63383;DHT22;49512;48.744;9.176;2023-01-30T19:12:34;15.20;99.90
63383;DHT22;49512;48.744;9.176;2023-01-30T19:15:18;15.20;99.90